sensor_id;sensor_type;location;lat;lon;timestamp;P1;P2;P0
69346;PMS5003;56494;43.536;5.048;2022-07-23T00:00:26;25.00;23.00;15.50
69346;PMS5003;56494;43.536;5.048;2022-07-23T00:02:53;22.00;22.00;16.80
69346;PMS5003;56494;43.536;5.048;2022-07-23T00:05:19;18.20;18.20;13.20
69346;PMS5003;56494;43.536;5.048;2022-07-23T00:07:46;21.00;21.00;15.75
69346;PMS5003;56494;43.536;5.048;2022-07-23T00:10:13;38.80;23.00;16.00
69346;PMS5003;56494;43.536;5.048;2022-07-23T00:12:39;24.20;20.40;14.40
69346;PMS5003;56494;43.536;5.048;2022-07-23T00:15:17;34.00;22.50;15.75
69346;PMS5003;56494;43.536;5.048;2022-07-23T00:17:43;22.00;22.00;15.25
69346;PMS5003;56494;43.536;5.048;2022-07-23T00:20:10;24.60;22.00;15.40
69346;PMS5003;56494;43.536;5.048;2022-07-23T00:22:37;35.60;20.60;14.80
69346;PMS5003;56494;43.536;5.048;2022-07-23T00:25:12;21.80;20.00;15.40
69346;PMS5003;56494;43.536;5.048;2022-07-23T00:27:57;24.40;24.40;18.00
69346;PMS5003;56494;43.536;5.048;2022-07-23T00:30:23;21.20;21.20;15.00
69346;PMS5003;56494;43.536;5.048;2022-07-23T00:32:51;22.00;22.00;15.00
69346;PMS5003;56494;43.536;5.048;2022-07-23T00:35:22;37.00;24.00;16.75
69346;PMS5003;56494;43.536;5.048;2022-07-23T00:37:48;32.75;20.00;14.75
69346;PMS5003;56494;43.536;5.048;2022-07-23T00:40:15;29.50;22.00;17.00
69346;PMS5003;56494;43.536;5.048;2022-07-23T00:42:42;40.25;21.50;14.25
69346;PMS5003;56494;43.536;5.048;2022-07-23T00:45:09;21.50;21.00;15.00
69346;PMS5003;56494;43.536;5.048;2022-07-23T00:47:36;25.00;22.50;16.00
69346;PMS5003;56494;43.536;5.048;2022-07-23T00:50:03;25.00;23.00;17.00
69346;PMS5003;56494;43.536;5.048;2022-07-23T00:52:30;25.00;21.00;15.00
69346;PMS5003;56494;43.536;5.048;2022-07-23T00:54:57;24.00;21.00;17.00
69346;PMS5003;56494;43.536;5.048;2022-07-23T00:57:24;29.60;22.20;17.00
69346;PMS5003;56494;43.536;5.048;2022-07-23T00:59:54;20.00;20.00;14.40
69346;PMS5003;56494;43.536;5.048;2022-07-23T01:02:21;40.25;23.00;17.00
69346;PMS5003;56494;43.536;5.048;2022-07-23T01:04:47;22.00;22.00;15.00
69346;PMS5003;56494;43.536;5.048;2022-07-23T01:07:14;24.40;24.00;16.80
69346;PMS5003;56494;43.536;5.048;2022-07-23T01:09:41;23.20;21.80;15.60
69346;PMS5003;56494;43.536;5.048;2022-07-23T01:12:08;22.25;21.25;15.25
69346;PMS5003;56494;43.536;5.048;2022-07-23T01:14:35;24.00;22.00;16.00
69346;PMS5003;56494;43.536;5.048;2022-07-23T01:17:01;22.00;20.50;15.50
69346;PMS5003;56494;43.536;5.048;2022-07-23T01:19:28;37.00;24.00;17.25
69346;PMS5003;56494;43.536;5.048;2022-07-23T01:21:55;38.20;24.00;16.00
69346;PMS5003;56494;43.536;5.048;2022-07-23T01:24:23;24.00;22.80;17.00
69346;PMS5003;56494;43.536;5.048;2022-07-23T01:26:50;25.75;21.25;16.00
69346;PMS5003;56494;43.536;5.048;2022-07-23T01:29:17;25.80;24.40;18.40
69346;PMS5003;56494;43.536;5.048;2022-07-23T01:31:43;37.25;22.00;17.00
69346;PMS5003;56494;43.536;5.048;2022-07-23T01:34:10;35.60;20.60;15.80
69346;PMS5003;56494;43.536;5.048;2022-07-23T01:36:37;26.20;23.20;17.20
69346;PMS5003;56494;43.536;5.048;2022-07-23T01:39:04;25.80;21.00;17.00
69346;PMS5003;56494;43.536;5.048;2022-07-23T01:41:32;21.60;21.00;14.60
69346;PMS5003;56494;43.536;5.048;2022-07-23T01:44:00;24.60;22.80;16.60
69346;PMS5003;56494;43.536;5.048;2022-07-23T01:46:27;25.50;23.50;17.25
69346;PMS5003;56494;43.536;5.048;2022-07-23T01:48:53;29.00;23.00;16.00
69346;PMS5003;56494;43.536;5.048;2022-07-23T01:51:20;31.75;23.00;18.50
69346;PMS5003;56494;43.536;5.048;2022-07-23T01:53:47;26.40;24.00;17.60
69346;PMS5003;56494;43.536;5.048;2022-07-23T01:56:13;24.75;23.00;17.00
69346;PMS5003;56494;43.536;5.048;2022-07-23T01:58:41;23.40;22.40;17.00
69346;PMS5003;56494;43.536;5.048;2022-07-23T02:01:08;32.40;21.40;15.40
69346;PMS5003;56494;43.536;5.048;2022-07-23T02:03:35;20.60;20.60;14.60
69346;PMS5003;56494;43.536;5.048;2022-07-23T02:06:02;36.60;23.00;19.00
69346;PMS5003;56494;43.536;5.048;2022-07-23T02:08:28;23.40;21.40;16.40
69346;PMS5003;56494;43.536;5.048;2022-07-23T02:10:55;40.80;24.00;18.00
69346;PMS5003;56494;43.536;5.048;2022-07-23T02:13:21;22.00;19.60;15.60
69346;PMS5003;56494;43.536;5.048;2022-07-23T02:15:48;22.00;20.00;15.50
69346;PMS5003;56494;43.536;5.048;2022-07-23T02:18:15;22.75;22.00;17.50
69346;PMS5003;56494;43.536;5.048;2022-07-23T02:20:41;45.00;25.25;17.00
69346;PMS5003;56494;43.536;5.048;2022-07-23T02:23:08;23.60;21.20;15.60
69346;PMS5003;56494;43.536;5.048;2022-07-23T02:25:35;22.40;22.40;16.00
69346;PMS5003;56494;43.536;5.048;2022-07-23T02:28:01;31.00;25.00;16.00
69346;PMS5003;56494;43.536;5.048;2022-07-23T02:30:28;25.00;23.40;17.40
69346;PMS5003;56494;43.536;5.048;2022-07-23T02:32:55;25.00;21.80;16.80
69346;PMS5003;56494;43.536;5.048;2022-07-23T02:35:21;26.00;24.00;18.00
69346;PMS5003;56494;43.536;5.048;2022-07-23T02:37:48;20.40;20.40;16.40
69346;PMS5003;56494;43.536;5.048;2022-07-23T02:40:16;33.20;19.20;15.20
69346;PMS5003;56494;43.536;5.048;2022-07-23T02:42:43;24.00;22.60;17.60
69346;PMS5003;56494;43.536;5.048;2022-07-23T02:45:10;24.60;24.60;18.00
69346;PMS5003;56494;43.536;5.048;2022-07-23T02:47:36;34.20;21.60;14.60
69346;PMS5003;56494;43.536;5.048;2022-07-23T02:50:03;23.00;23.00;18.00
69346;PMS5003;56494;43.536;5.048;2022-07-23T02:52:31;27.40;24.80;16.80
69346;PMS5003;56494;43.536;5.048;2022-07-23T02:54:58;27.50;25.50;17.00
69346;PMS5003;56494;43.536;5.048;2022-07-23T02:57:25;34.50;24.50;18.00
69346;PMS5003;56494;43.536;5.048;2022-07-23T02:59:51;40.25;24.25;18.00
69346;PMS5003;56494;43.536;5.048;2022-07-23T03:02:18;26.60;24.00;18.00
69346;PMS5003;56494;43.536;5.048;2022-07-23T03:04:45;28.80;21.40;14.80
69346;PMS5003;56494;43.536;5.048;2022-07-23T03:07:11;23.00;23.00;15.40
69346;PMS5003;56494;43.536;5.048;2022-07-23T03:09:38;26.20;25.20;19.00
69346;PMS5003;56494;43.536;5.048;2022-07-23T03:12:05;26.00;23.40;18.00
69346;PMS5003;56494;43.536;5.048;2022-07-23T03:14:38;32.25;23.75;17.50
69346;PMS5003;56494;43.536;5.048;2022-07-23T03:17:05;34.50;29.00;20.00
69346;PMS5003;56494;43.536;5.048;2022-07-23T03:19:32;31.20;23.40;18.00
69346;PMS5003;56494;43.536;5.048;2022-07-23T03:21:58;39.50;25.00;18.00
69346;PMS5003;56494;43.536;5.048;2022-07-23T03:24:25;40.75;25.50;18.50
69346;PMS5003;56494;43.536;5.048;2022-07-23T03:27:12;26.75;25.75;18.75
69346;PMS5003;56494;43.536;5.048;2022-07-23T03:29:38;38.75;24.00;18.00
69346;PMS5003;56494;43.536;5.048;2022-07-23T03:32:05;27.67;26.67;18.67
69346;PMS5003;56494;43.536;5.048;2022-07-23T03:34:32;26.80;22.80;16.60
69346;PMS5003;56494;43.536;5.048;2022-07-23T03:36:58;25.40;23.00;16.40
69346;PMS5003;56494;43.536;5.048;2022-07-23T03:39:28;34.20;26.40;17.80
69346;PMS5003;56494;43.536;5.048;2022-07-23T03:41:54;37.25;26.25;18.50
69346;PMS5003;56494;43.536;5.048;2022-07-23T03:44:21;24.75;24.50;17.75
69346;PMS5003;56494;43.536;5.048;2022-07-23T03:46:48;25.00;25.00;18.00
69346;PMS5003;56494;43.536;5.048;2022-07-23T03:49:14;26.75;21.75;16.00
69346;PMS5003;56494;43.536;5.048;2022-07-23T03:51:41;38.20;26.40;19.20
69346;PMS5003;56494;43.536;5.048;2022-07-23T03:54:08;31.00;29.00;20.00
69346;PMS5003;56494;43.536;5.048;2022-07-23T03:56:34;31.00;27.00;20.00
69346;PMS5003;56494;43.536;5.048;2022-07-23T03:59:01;39.25;27.50;19.75
69346;PMS5003;56494;43.536;5.048;2022-07-23T04:01:28;29.00;29.00;20.00
69346;PMS5003;56494;43.536;5.048;2022-07-23T04:03:55;38.50;24.50;18.00
69346;PMS5003;56494;43.536;5.048;2022-07-23T04:06:21;46.33;26.67;18.00
69346;PMS5003;56494;43.536;5.048;2022-07-23T04:08:48;31.00;27.60;19.80
69346;PMS5003;56494;43.536;5.048;2022-07-23T04:11:14;39.00;23.75;17.50
69346;PMS5003;56494;43.536;5.048;2022-07-23T04:13:41;44.00;28.00;18.75
69346;PMS5003;56494;43.536;5.048;2022-07-23T04:16:08;35.50;27.00;20.00
69346;PMS5003;56494;43.536;5.048;2022-07-23T04:18:35;39.75;24.25;18.75
69346;PMS5003;56494;43.536;5.048;2022-07-23T04:21:01;43.60;28.20;20.00
69346;PMS5003;56494;43.536;5.048;2022-07-23T04:23:28;25.80;24.40;16.00
69346;PMS5003;56494;43.536;5.048;2022-07-23T04:25:54;33.40;25.00;17.40
69346;PMS5003;56494;43.536;5.048;2022-07-23T04:28:22;37.20;26.00;18.00
69346;PMS5003;56494;43.536;5.048;2022-07-23T04:30:48;41.25;28.25;19.75
69346;PMS5003;56494;43.536;5.048;2022-07-23T04:33:15;37.00;25.00;17.80
69346;PMS5003;56494;43.536;5.048;2022-07-23T04:35:42;33.60;28.40;19.40
69346;PMS5003;56494;43.536;5.048;2022-07-23T04:38:08;45.25;29.00;19.00
69346;PMS5003;56494;43.536;5.048;2022-07-23T04:40:35;27.00;26.00;16.40
69346;PMS5003;56494;43.536;5.048;2022-07-23T04:43:01;32.00;24.50;18.50
69346;PMS5003;56494;43.536;5.048;2022-07-23T04:45:28;40.75;27.50;20.00
69346;PMS5003;56494;43.536;5.048;2022-07-23T04:47:55;25.00;21.00;17.00
69346;PMS5003;56494;43.536;5.048;2022-07-23T04:50:23;31.60;22.40;16.40
69346;PMS5003;56494;43.536;5.048;2022-07-23T04:52:50;37.00;24.25;18.00
69346;PMS5003;56494;43.536;5.048;2022-07-23T04:55:17;29.25;28.00;20.00
69346;PMS5003;56494;43.536;5.048;2022-07-23T04:57:44;27.60;27.60;18.60
69346;PMS5003;56494;43.536;5.048;2022-07-23T05:00:11;33.80;25.80;18.00
69346;PMS5003;56494;43.536;5.048;2022-07-23T05:02:37;28.50;25.00;17.00
69346;PMS5003;56494;43.536;5.048;2022-07-23T05:05:04;31.50;27.75;19.00
69346;PMS5003;56494;43.536;5.048;2022-07-23T05:07:31;22.80;22.80;15.80
69346;PMS5003;56494;43.536;5.048;2022-07-23T05:09:58;35.80;24.80;18.00
69346;PMS5003;56494;43.536;5.048;2022-07-23T05:12:25;29.25;26.25;19.50
69346;PMS5003;56494;43.536;5.048;2022-07-23T05:14:51;43.60;24.40;17.60
69346;PMS5003;56494;43.536;5.048;2022-07-23T05:17:19;26.50;23.50;19.50
69346;PMS5003;56494;43.536;5.048;2022-07-23T05:19:47;25.60;22.60;16.60
69346;PMS5003;56494;43.536;5.048;2022-07-23T05:22:14;23.60;23.20;16.60
69346;PMS5003;56494;43.536;5.048;2022-07-23T05:24:40;26.00;26.00;17.60
69346;PMS5003;56494;43.536;5.048;2022-07-23T05:27:07;28.00;23.40;18.00
69346;PMS5003;56494;43.536;5.048;2022-07-23T05:29:34;24.20;23.00;17.00
69346;PMS5003;56494;43.536;5.048;2022-07-23T05:32:00;24.00;21.20;14.00
69346;PMS5003;56494;43.536;5.048;2022-07-23T05:34:27;26.50;22.00;16.00
69346;PMS5003;56494;43.536;5.048;2022-07-23T05:36:54;24.00;24.00;17.60
69346;PMS5003;56494;43.536;5.048;2022-07-23T05:39:20;30.75;20.75;16.00
69346;PMS5003;56494;43.536;5.048;2022-07-23T05:41:47;24.20;23.00;17.80
69346;PMS5003;56494;43.536;5.048;2022-07-23T05:44:14;25.40;25.40;18.00
69346;PMS5003;56494;43.536;5.048;2022-07-23T05:46:40;27.00;22.00;17.40
69346;PMS5003;56494;43.536;5.048;2022-07-23T05:49:07;22.00;21.00;17.00
69346;PMS5003;56494;43.536;5.048;2022-07-23T05:51:34;33.50;24.75;19.25
69346;PMS5003;56494;43.536;5.048;2022-07-23T05:54:00;31.40;25.00;18.00
69346;PMS5003;56494;43.536;5.048;2022-07-23T05:56:27;23.00;22.25;16.75
69346;PMS5003;56494;43.536;5.048;2022-07-23T05:58:53;23.75;21.75;17.75
69346;PMS5003;56494;43.536;5.048;2022-07-23T06:01:20;21.00;21.00;15.00
69346;PMS5003;56494;43.536;5.048;2022-07-23T06:03:47;21.00;18.75;14.50
69346;PMS5003;56494;43.536;5.048;2022-07-23T06:06:13;23.50;20.00;15.25
69346;PMS5003;56494;43.536;5.048;2022-07-23T06:08:40;32.80;21.80;15.80
69346;PMS5003;56494;43.536;5.048;2022-07-23T06:11:07;39.60;22.80;16.20
69346;PMS5003;56494;43.536;5.048;2022-07-23T06:13:34;26.80;22.00;16.00
69346;PMS5003;56494;43.536;5.048;2022-07-23T06:16:01;20.50;20.50;15.50
69346;PMS5003;56494;43.536;5.048;2022-07-23T06:18:27;33.40;22.00;17.00
69346;PMS5003;56494;43.536;5.048;2022-07-23T06:20:54;34.00;18.00;14.50
69346;PMS5003;56494;43.536;5.048;2022-07-23T06:23:25;22.40;21.00;16.40
69346;PMS5003;56494;43.536;5.048;2022-07-23T06:25:52;22.80;21.80;15.80
69346;PMS5003;56494;43.536;5.048;2022-07-23T06:28:19;32.25;23.00;16.75
69346;PMS5003;56494;43.536;5.048;2022-07-23T06:30:46;37.00;20.25;16.00
69346;PMS5003;56494;43.536;5.048;2022-07-23T06:33:12;21.00;21.00;16.25
69346;PMS5003;56494;43.536;5.048;2022-07-23T06:35:39;36.25;20.75;16.00
69346;PMS5003;56494;43.536;5.048;2022-07-23T06:38:06;22.00;19.00;15.75
69346;PMS5003;56494;43.536;5.048;2022-07-23T06:40:33;23.40;22.00;15.00
69346;PMS5003;56494;43.536;5.048;2022-07-23T06:42:59;25.20;21.00;15.60
69346;PMS5003;56494;43.536;5.048;2022-07-23T06:45:26;37.60;24.00;17.00
69346;PMS5003;56494;43.536;5.048;2022-07-23T06:47:53;21.00;21.00;15.40
69346;PMS5003;56494;43.536;5.048;2022-07-23T06:50:19;38.60;24.20;16.20
69346;PMS5003;56494;43.536;5.048;2022-07-23T06:52:46;21.20;20.00;15.00
69346;PMS5003;56494;43.536;5.048;2022-07-23T06:55:13;21.00;21.00;17.00
69346;PMS5003;56494;43.536;5.048;2022-07-23T06:57:40;23.40;19.20;14.60
69346;PMS5003;56494;43.536;5.048;2022-07-23T07:00:07;27.00;23.00;16.00
69346;PMS5003;56494;43.536;5.048;2022-07-23T07:02:34;24.40;20.40;15.40
69346;PMS5003;56494;43.536;5.048;2022-07-23T07:05:01;33.00;20.40;16.40
69346;PMS5003;56494;43.536;5.048;2022-07-23T07:07:32;26.25;22.75;17.00
69346;PMS5003;56494;43.536;5.048;2022-07-23T07:09:58;20.60;18.60;14.60
69346;PMS5003;56494;43.536;5.048;2022-07-23T07:12:25;26.50;22.00;18.00
69346;PMS5003;56494;43.536;5.048;2022-07-23T07:14:52;24.50;21.50;16.50
69346;PMS5003;56494;43.536;5.048;2022-07-23T07:17:19;25.20;21.20;16.20
69346;PMS5003;56494;43.536;5.048;2022-07-23T07:19:46;24.00;22.00;15.00
69346;PMS5003;56494;43.536;5.048;2022-07-23T07:22:13;24.40;24.40;17.40
69346;PMS5003;56494;43.536;5.048;2022-07-23T07:24:39;21.00;20.50;15.50
69346;PMS5003;56494;43.536;5.048;2022-07-23T07:27:06;21.00;21.00;16.00
69346;PMS5003;56494;43.536;5.048;2022-07-23T07:29:33;24.00;19.40;16.00
69346;PMS5003;56494;43.536;5.048;2022-07-23T07:31:59;27.75;24.25;18.25
69346;PMS5003;56494;43.536;5.048;2022-07-23T07:34:26;34.25;21.50;14.75
69346;PMS5003;56494;43.536;5.048;2022-07-23T07:36:53;22.20;20.00;14.00
69346;PMS5003;56494;43.536;5.048;2022-07-23T07:39:20;24.00;21.60;15.60
69346;PMS5003;56494;43.536;5.048;2022-07-23T07:41:46;38.50;23.00;18.00
69346;PMS5003;56494;43.536;5.048;2022-07-23T07:44:13;24.75;22.25;17.25
69346;PMS5003;56494;43.536;5.048;2022-07-23T07:46:39;37.00;20.00;14.25
69346;PMS5003;56494;43.536;5.048;2022-07-23T07:49:06;27.20;23.00;16.60
69346;PMS5003;56494;43.536;5.048;2022-07-23T07:51:41;24.80;23.00;17.00
69346;PMS5003;56494;43.536;5.048;2022-07-23T07:54:08;32.20;21.40;16.00
69346;PMS5003;56494;43.536;5.048;2022-07-23T07:56:35;25.75;25.00;16.25
69346;PMS5003;56494;43.536;5.048;2022-07-23T07:59:01;31.25;25.75;18.25
69346;PMS5003;56494;43.536;5.048;2022-07-23T08:01:29;23.60;22.20;16.20
69346;PMS5003;56494;43.536;5.048;2022-07-23T08:03:56;25.20;22.00;16.00
69346;PMS5003;56494;43.536;5.048;2022-07-23T08:06:22;46.60;24.60;18.60
69346;PMS5003;56494;43.536;5.048;2022-07-23T08:08:49;44.40;25.80;19.60
69346;PMS5003;56494;43.536;5.048;2022-07-23T08:11:16;28.00;24.25;17.25
69346;PMS5003;56494;43.536;5.048;2022-07-23T08:13:42;25.00;24.00;19.00
69346;PMS5003;56494;43.536;5.048;2022-07-23T08:16:11;24.00;24.00;18.50
69346;PMS5003;56494;43.536;5.048;2022-07-23T08:18:38;38.00;25.25;19.25
69346;PMS5003;56494;43.536;5.048;2022-07-23T08:21:04;29.20;29.20;20.00
69346;PMS5003;56494;43.536;5.048;2022-07-23T08:23:31;47.40;29.00;21.00
69346;PMS5003;56494;43.536;5.048;2022-07-23T08:25:58;29.60;28.00;21.00
69346;PMS5003;56494;43.536;5.048;2022-07-23T08:28:26;30.75;26.50;19.25
69346;PMS5003;56494;43.536;5.048;2022-07-23T08:30:52;27.00;24.00;19.00
69346;PMS5003;56494;43.536;5.048;2022-07-23T08:33:19;30.00;28.00;19.00
69346;PMS5003;56494;43.536;5.048;2022-07-23T08:35:59;34.50;23.50;17.00
69346;PMS5003;56494;43.536;5.048;2022-07-23T08:38:26;30.50;27.00;18.75
69346;PMS5003;56494;43.536;5.048;2022-07-23T08:40:55;32.00;24.50;18.00
69346;PMS5003;56494;43.536;5.048;2022-07-23T08:43:25;22.25;21.25;16.00
69346;PMS5003;56494;43.536;5.048;2022-07-23T08:45:53;26.25;26.00;19.50
69346;PMS5003;56494;43.536;5.048;2022-07-23T08:48:20;23.33;22.33;17.33
69346;PMS5003;56494;43.536;5.048;2022-07-23T08:50:50;21.50;21.50;15.75
69346;PMS5003;56494;43.536;5.048;2022-07-23T08:53:17;25.00;20.00;15.00
69346;PMS5003;56494;43.536;5.048;2022-07-23T08:55:45;24.50;23.00;16.25
69346;PMS5003;56494;43.536;5.048;2022-07-23T08:58:12;25.40;25.40;19.00
69346;PMS5003;56494;43.536;5.048;2022-07-23T09:00:39;21.75;19.75;14.75
69346;PMS5003;56494;43.536;5.048;2022-07-23T09:03:05;22.80;22.80;17.00
69346;PMS5003;56494;43.536;5.048;2022-07-23T09:05:32;43.40;22.20;16.20
69346;PMS5003;56494;43.536;5.048;2022-07-23T09:08:06;29.20;23.00;16.00
69346;PMS5003;56494;43.536;5.048;2022-07-23T09:10:43;22.75;22.75;17.00
69346;PMS5003;56494;43.536;5.048;2022-07-23T09:15:57;38.75;23.00;18.00
69346;PMS5003;56494;43.536;5.048;2022-07-23T09:18:28;21.00;21.00;15.00
69346;PMS5003;56494;43.536;5.048;2022-07-23T09:21:07;43.00;23.60;18.00
69346;PMS5003;56494;43.536;5.048;2022-07-23T09:26:17;26.40;23.40;17.40
69346;PMS5003;56494;43.536;5.048;2022-07-23T09:28:51;23.50;22.00;17.75
69346;PMS5003;56494;43.536;5.048;2022-07-23T09:31:19;22.80;22.80;18.40
69346;PMS5003;56494;43.536;5.048;2022-07-23T09:33:45;24.00;23.00;18.00
69346;PMS5003;56494;43.536;5.048;2022-07-23T09:36:12;23.75;22.25;15.75
69346;PMS5003;56494;43.536;5.048;2022-07-23T09:38:49;26.00;24.00;18.00
69346;PMS5003;56494;43.536;5.048;2022-07-23T09:41:16;34.50;24.00;18.50
69346;PMS5003;56494;43.536;5.048;2022-07-23T09:43:43;39.20;26.20;18.60
69346;PMS5003;56494;43.536;5.048;2022-07-23T09:46:23;36.50;21.50;16.50
69346;PMS5003;56494;43.536;5.048;2022-07-23T09:48:51;24.50;22.00;16.75
69346;PMS5003;56494;43.536;5.048;2022-07-23T09:51:19;30.00;24.00;18.00
69346;PMS5003;56494;43.536;5.048;2022-07-23T09:54:04;24.80;23.40;17.40
69346;PMS5003;56494;43.536;5.048;2022-07-23T09:56:31;24.00;24.00;18.00
69346;PMS5003;56494;43.536;5.048;2022-07-23T09:58:59;25.00;23.60;17.60
69346;PMS5003;56494;43.536;5.048;2022-07-23T10:01:44;25.00;23.00;17.00
69346;PMS5003;56494;43.536;5.048;2022-07-23T10:04:12;35.40;21.80;16.20
69346;PMS5003;56494;43.536;5.048;2022-07-23T10:06:39;39.80;23.20;16.40
69346;PMS5003;56494;43.536;5.048;2022-07-23T10:09:05;22.20;22.20;16.20
69346;PMS5003;56494;43.536;5.048;2022-07-23T10:11:35;43.75;26.75;18.50
69346;PMS5003;56494;43.536;5.048;2022-07-23T10:14:02;42.00;23.00;16.75
69346;PMS5003;56494;43.536;5.048;2022-07-23T10:16:31;30.25;24.25;19.50
69346;PMS5003;56494;43.536;5.048;2022-07-23T10:18:58;24.75;24.50;18.00
69346;PMS5003;56494;43.536;5.048;2022-07-23T10:21:27;26.40;24.40;18.00
69346;PMS5003;56494;43.536;5.048;2022-07-23T10:24:16;28.25;25.75;19.50
69346;PMS5003;56494;43.536;5.048;2022-07-23T10:29:47;37.75;25.50;19.00
69346;PMS5003;56494;43.536;5.048;2022-07-23T10:32:20;19.50;19.50;14.50
69346;PMS5003;56494;43.536;5.048;2022-07-23T10:37:56;23.75;23.75;19.00
69346;PMS5003;56494;43.536;5.048;2022-07-23T10:40:27;23.00;21.00;15.50
69346;PMS5003;56494;43.536;5.048;2022-07-23T10:42:54;22.00;22.00;17.60
69346;PMS5003;56494;43.536;5.048;2022-07-23T10:45:29;22.50;21.00;16.00
69346;PMS5003;56494;43.536;5.048;2022-07-23T10:48:10;32.20;24.00;19.00
69346;PMS5003;56494;43.536;5.048;2022-07-23T10:50:37;27.25;20.00;16.00
69346;PMS5003;56494;43.536;5.048;2022-07-23T10:58:01;33.60;20.00;14.00
69346;PMS5003;56494;43.536;5.048;2022-07-23T11:00:29;29.75;23.00;16.00
69346;PMS5003;56494;43.536;5.048;2022-07-23T11:02:57;22.20;22.00;17.00
69346;PMS5003;56494;43.536;5.048;2022-07-23T11:05:26;26.00;24.00;18.00
69346;PMS5003;56494;43.536;5.048;2022-07-23T11:10:34;30.40;20.60;15.60
69346;PMS5003;56494;43.536;5.048;2022-07-23T11:24:14;23.75;22.50;16.50
69346;PMS5003;56494;43.536;5.048;2022-07-23T11:26:45;37.25;24.25;17.25
69346;PMS5003;56494;43.536;5.048;2022-07-23T11:32:17;41.60;26.60;19.00
69346;PMS5003;56494;43.536;5.048;2022-07-23T11:34:46;30.50;26.50;18.00
69346;PMS5003;56494;43.536;5.048;2022-07-23T11:37:31;25.00;25.00;20.00
69346;PMS5003;56494;43.536;5.048;2022-07-23T11:39:58;38.50;23.00;19.00
69346;PMS5003;56494;43.536;5.048;2022-07-23T11:42:24;34.60;22.80;17.00
69346;PMS5003;56494;43.536;5.048;2022-07-23T11:44:56;29.50;24.00;18.50
69346;PMS5003;56494;43.536;5.048;2022-07-23T11:47:23;23.20;21.60;16.00
69346;PMS5003;56494;43.536;5.048;2022-07-23T11:49:57;27.00;25.25;20.00
69346;PMS5003;56494;43.536;5.048;2022-07-23T11:52:24;42.50;22.50;15.75
69346;PMS5003;56494;43.536;5.048;2022-07-23T11:54:58;38.40;25.20;18.00
69346;PMS5003;56494;43.536;5.048;2022-07-23T11:57:26;23.40;22.40;18.00
69346;PMS5003;56494;43.536;5.048;2022-07-23T11:59:54;40.25;25.50;18.75
69346;PMS5003;56494;43.536;5.048;2022-07-23T12:02:21;23.80;23.80;18.40
69346;PMS5003;56494;43.536;5.048;2022-07-23T12:04:49;27.60;25.00;19.00
69346;PMS5003;56494;43.536;5.048;2022-07-23T12:09:56;24.25;23.50;17.25
69346;PMS5003;56494;43.536;5.048;2022-07-23T12:12:23;29.20;28.00;19.80
69346;PMS5003;56494;43.536;5.048;2022-07-23T12:14:54;23.75;23.75;18.75
69346;PMS5003;56494;43.536;5.048;2022-07-23T12:17:21;24.00;24.00;18.00
69346;PMS5003;56494;43.536;5.048;2022-07-23T12:19:52;26.20;23.00;17.00
69346;PMS5003;56494;43.536;5.048;2022-07-23T12:22:20;22.60;22.00;17.00
69346;PMS5003;56494;43.536;5.048;2022-07-23T12:24:58;27.80;21.00;15.80
69346;PMS5003;56494;43.536;5.048;2022-07-23T12:27:25;23.00;23.00;18.40
69346;PMS5003;56494;43.536;5.048;2022-07-23T12:29:52;24.20;21.20;16.80
69346;PMS5003;56494;43.536;5.048;2022-07-23T12:32:20;40.40;24.40;17.40
69346;PMS5003;56494;43.536;5.048;2022-07-23T12:34:48;22.80;20.00;16.00
69346;PMS5003;56494;43.536;5.048;2022-07-23T12:37:27;22.50;21.25;16.25
69346;PMS5003;56494;43.536;5.048;2022-07-23T12:39:54;23.60;21.00;15.40
69346;PMS5003;56494;43.536;5.048;2022-07-23T12:42:22;27.00;23.00;15.40
69346;PMS5003;56494;43.536;5.048;2022-07-23T12:45:06;22.00;22.00;16.00
69346;PMS5003;56494;43.536;5.048;2022-07-23T12:50:33;22.00;19.00;15.75
69346;PMS5003;56494;43.536;5.048;2022-07-23T12:53:14;28.75;23.00;16.00
69346;PMS5003;56494;43.536;5.048;2022-07-23T12:58:50;22.20;21.00;16.00
69346;PMS5003;56494;43.536;5.048;2022-07-23T13:06:22;43.75;24.00;17.00
69346;PMS5003;56494;43.536;5.048;2022-07-23T13:08:50;20.25;18.25;15.25
69346;PMS5003;56494;43.536;5.048;2022-07-23T13:11:17;21.75;19.75;14.50
69346;PMS5003;56494;43.536;5.048;2022-07-23T13:13:45;22.60;20.60;15.60
69346;PMS5003;56494;43.536;5.048;2022-07-23T13:16:12;22.00;20.00;15.80
69346;PMS5003;56494;43.536;5.048;2022-07-23T13:18:38;24.00;21.00;15.00
69346;PMS5003;56494;43.536;5.048;2022-07-23T13:21:05;19.40;18.40;15.00
69346;PMS5003;56494;43.536;5.048;2022-07-23T13:23:32;32.25;20.25;15.00
69346;PMS5003;56494;43.536;5.048;2022-07-23T13:25:58;36.60;22.00;14.80
69346;PMS5003;56494;43.536;5.048;2022-07-23T13:28:25;23.00;21.40;16.40
69346;PMS5003;56494;43.536;5.048;2022-07-23T13:30:52;19.00;17.40;15.00
69346;PMS5003;56494;43.536;5.048;2022-07-23T13:33:20;20.80;20.80;15.00
69346;PMS5003;56494;43.536;5.048;2022-07-23T13:35:48;21.00;18.60;14.00
69346;PMS5003;56494;43.536;5.048;2022-07-23T13:38:15;29.25;22.00;15.00
69346;PMS5003;56494;43.536;5.048;2022-07-23T13:40:43;25.25;22.75;14.75
69346;PMS5003;56494;43.536;5.048;2022-07-23T13:43:12;24.00;18.00;13.00
69346;PMS5003;56494;43.536;5.048;2022-07-23T13:45:39;37.20;18.80;14.80
69346;PMS5003;56494;43.536;5.048;2022-07-23T13:48:07;18.40;18.40;14.40
69346;PMS5003;56494;43.536;5.048;2022-07-23T13:50:35;33.67;17.33;13.00
69346;PMS5003;56494;43.536;5.048;2022-07-23T13:53:03;21.40;18.40;12.40
69346;PMS5003;56494;43.536;5.048;2022-07-23T13:55:32;17.25;17.00;13.00
69346;PMS5003;56494;43.536;5.048;2022-07-23T13:57:59;16.40;15.60;12.40
69346;PMS5003;56494;43.536;5.048;2022-07-23T14:00:26;25.00;20.00;13.60
69346;PMS5003;56494;43.536;5.048;2022-07-23T14:03:13;17.00;17.00;13.00
69346;PMS5003;56494;43.536;5.048;2022-07-23T14:05:40;17.75;16.00;13.00
69346;PMS5003;56494;43.536;5.048;2022-07-23T14:08:10;19.00;16.20;12.20
69346;PMS5003;56494;43.536;5.048;2022-07-23T14:10:39;18.60;16.00;12.00
69346;PMS5003;56494;43.536;5.048;2022-07-23T14:13:08;21.25;20.00;14.00
69346;PMS5003;56494;43.536;5.048;2022-07-23T14:15:35;19.00;16.00;11.00
69346;PMS5003;56494;43.536;5.048;2022-07-23T14:18:03;23.60;19.60;15.00
69346;PMS5003;56494;43.536;5.048;2022-07-23T14:20:30;17.60;17.60;12.00
69346;PMS5003;56494;43.536;5.048;2022-07-23T14:22:57;19.60;16.40;13.40
69346;PMS5003;56494;43.536;5.048;2022-07-23T14:25:30;16.00;16.00;13.00
69346;PMS5003;56494;43.536;5.048;2022-07-23T14:27:56;18.50;17.00;11.00
69346;PMS5003;56494;43.536;5.048;2022-07-23T14:30:23;19.00;17.33;14.00
69346;PMS5003;56494;43.536;5.048;2022-07-23T14:32:57;25.40;15.20;11.00
69346;PMS5003;56494;43.536;5.048;2022-07-23T14:35:24;18.50;17.00;13.00
69346;PMS5003;56494;43.536;5.048;2022-07-23T14:37:50;20.60;19.00;14.00